sensor_id;sensor_type;location;lat;lon;timestamp;P1;durP1;ratioP1;P2;durP2;ratioP2
5776;SDS011;2914;42.668;23.346;2022-12-16T00:01:28;141.83;;;53.03;;
5776;SDS011;2914;42.668;23.346;2022-12-16T00:03:59;140.23;;;53.83;;
5776;SDS011;2914;42.668;23.346;2022-12-16T00:06:29;117.50;;;50.70;;
5776;SDS011;2914;42.668;23.346;2022-12-16T00:09:00;173.17;;;53.87;;
5776;SDS011;2914;42.668;23.346;2022-12-16T00:11:30;172.37;;;53.07;;
5776;SDS011;2914;42.668;23.346;2022-12-16T00:13:59;125.00;;;49.63;;
5776;SDS011;2914;42.668;23.346;2022-12-16T00:16:29;121.80;;;45.40;;
5776;SDS011;2914;42.668;23.346;2022-12-16T00:18:58;136.20;;;47.80;;
5776;SDS011;2914;42.668;23.346;2022-12-16T00:21:28;119.83;;;49.07;;
5776;SDS011;2914;42.668;23.346;2022-12-16T00:23:57;146.03;;;49.63;;
5776;SDS011;2914;42.668;23.346;2022-12-16T00:26:26;112.93;;;46.17;;
5776;SDS011;2914;42.668;23.346;2022-12-16T00:28:56;115.90;;;46.67;;
5776;SDS011;2914;42.668;23.346;2022-12-16T00:31:25;140.67;;;50.97;;
5776;SDS011;2914;42.668;23.346;2022-12-16T00:33:55;225.73;;;51.73;;
5776;SDS011;2914;42.668;23.346;2022-12-16T00:36:25;122.57;;;49.37;;
5776;SDS011;2914;42.668;23.346;2022-12-16T00:38:54;135.40;;;47.17;;
5776;SDS011;2914;42.668;23.346;2022-12-16T00:44:24;125.90;;;45.77;;
5776;SDS011;2914;42.668;23.346;2022-12-16T00:46:53;185.77;;;46.90;;
5776;SDS011;2914;42.668;23.346;2022-12-16T00:49:22;113.57;;;45.53;;
5776;SDS011;2914;42.668;23.346;2022-12-16T00:51:51;109.40;;;44.97;;
5776;SDS011;2914;42.668;23.346;2022-12-16T00:54:21;105.60;;;44.27;;
5776;SDS011;2914;42.668;23.346;2022-12-16T00:56:51;113.07;;;45.77;;
5776;SDS011;2914;42.668;23.346;2022-12-16T00:59:21;145.23;;;44.27;;
5776;SDS011;2914;42.668;23.346;2022-12-16T01:01:52;118.33;;;42.57;;
5776;SDS011;2914;42.668;23.346;2022-12-16T01:04:22;147.77;;;45.87;;
5776;SDS011;2914;42.668;23.346;2022-12-16T01:06:51;137.77;;;45.40;;
5776;SDS011;2914;42.668;23.346;2022-12-16T01:09:22;112.53;;;41.60;;
5776;SDS011;2914;42.668;23.346;2022-12-16T01:11:51;107.57;;;44.27;;
5776;SDS011;2914;42.668;23.346;2022-12-16T01:14:21;153.13;;;47.70;;
5776;SDS011;2914;42.668;23.346;2022-12-16T01:16:50;124.37;;;44.07;;
5776;SDS011;2914;42.668;23.346;2022-12-16T01:19:19;158.07;;;48.83;;
5776;SDS011;2914;42.668;23.346;2022-12-16T01:21:48;147.90;;;49.93;;
5776;SDS011;2914;42.668;23.346;2022-12-16T01:24:18;106.87;;;47.40;;
5776;SDS011;2914;42.668;23.346;2022-12-16T01:26:47;133.47;;;50.20;;
5776;SDS011;2914;42.668;23.346;2022-12-16T01:29:16;112.50;;;49.93;;
5776;SDS011;2914;42.668;23.346;2022-12-16T01:31:45;203.80;;;55.40;;
5776;SDS011;2914;42.668;23.346;2022-12-16T01:34:14;163.67;;;55.83;;
5776;SDS011;2914;42.668;23.346;2022-12-16T01:36:45;159.50;;;56.97;;
5776;SDS011;2914;42.668;23.346;2022-12-16T01:39:15;172.03;;;64.43;;
5776;SDS011;2914;42.668;23.346;2022-12-16T01:41:44;159.63;;;67.30;;
5776;SDS011;2914;42.668;23.346;2022-12-16T01:44:14;182.97;;;72.90;;
5776;SDS011;2914;42.668;23.346;2022-12-16T01:46:54;243.53;;;82.70;;
5776;SDS011;2914;42.668;23.346;2022-12-16T01:49:25;214.10;;;80.80;;
5776;SDS011;2914;42.668;23.346;2022-12-16T01:51:58;235.97;;;78.90;;
5776;SDS011;2914;42.668;23.346;2022-12-16T01:54:30;211.90;;;83.87;;
5776;SDS011;2914;42.668;23.346;2022-12-16T01:57:01;250.37;;;85.80;;
5776;SDS011;2914;42.668;23.346;2022-12-16T01:59:33;246.37;;;91.17;;
5776;SDS011;2914;42.668;23.346;2022-12-16T02:02:04;215.87;;;89.17;;
5776;SDS011;2914;42.668;23.346;2022-12-16T02:04:34;262.00;;;95.57;;
5776;SDS011;2914;42.668;23.346;2022-12-16T02:09:50;244.27;;;85.87;;
5776;SDS011;2914;42.668;23.346;2022-12-16T02:15:03;245.13;;;90.37;;
5776;SDS011;2914;42.668;23.346;2022-12-16T02:17:43;223.60;;;86.80;;
5776;SDS011;2914;42.668;23.346;2022-12-16T02:27:09;217.33;;;86.77;;
5776;SDS011;2914;42.668;23.346;2022-12-16T02:30:17;201.07;;;81.53;;
5776;SDS011;2914;42.668;23.346;2022-12-16T02:33:09;222.93;;;82.10;;
5776;SDS011;2914;42.668;23.346;2022-12-16T02:35:48;235.13;;;92.00;;
5776;SDS011;2914;42.668;23.346;2022-12-16T02:38:22;243.30;;;91.23;;
5776;SDS011;2914;42.668;23.346;2022-12-16T02:40:54;216.37;;;90.50;;
5776;SDS011;2914;42.668;23.346;2022-12-16T02:43:29;259.63;;;105.00;;
5776;SDS011;2914;42.668;23.346;2022-12-16T02:46:03;271.63;;;100.17;;
5776;SDS011;2914;42.668;23.346;2022-12-16T02:48:34;234.83;;;97.67;;
5776;SDS011;2914;42.668;23.346;2022-12-16T02:51:03;264.03;;;106.77;;
5776;SDS011;2914;42.668;23.346;2022-12-16T02:53:33;279.80;;;102.50;;
5776;SDS011;2914;42.668;23.346;2022-12-16T02:56:05;284.13;;;99.67;;
5776;SDS011;2914;42.668;23.346;2022-12-16T02:58:46;261.40;;;95.20;;
5776;SDS011;2914;42.668;23.346;2022-12-16T03:01:18;266.47;;;96.83;;
5776;SDS011;2914;42.668;23.346;2022-12-16T03:03:59;301.60;;;94.77;;
5776;SDS011;2914;42.668;23.346;2022-12-16T03:06:30;218.20;;;82.43;;
5776;SDS011;2914;42.668;23.346;2022-12-16T03:09:02;264.50;;;88.13;;
5776;SDS011;2914;42.668;23.346;2022-12-16T03:11:49;202.67;;;79.07;;
5776;SDS011;2914;42.668;23.346;2022-12-16T03:14:20;203.90;;;74.70;;
5776;SDS011;2914;42.668;23.346;2022-12-16T03:16:52;175.33;;;66.60;;
5776;SDS011;2914;42.668;23.346;2022-12-16T03:19:30;220.40;;;76.00;;
5776;SDS011;2914;42.668;23.346;2022-12-16T03:22:01;208.20;;;70.83;;
5776;SDS011;2914;42.668;23.346;2022-12-16T03:24:32;174.97;;;69.43;;
5776;SDS011;2914;42.668;23.346;2022-12-16T03:27:04;218.83;;;74.50;;
5776;SDS011;2914;42.668;23.346;2022-12-16T03:29:38;244.70;;;79.20;;
5776;SDS011;2914;42.668;23.346;2022-12-16T03:32:09;210.50;;;77.90;;
5776;SDS011;2914;42.668;23.346;2022-12-16T03:34:42;224.40;;;83.83;;
5776;SDS011;2914;42.668;23.346;2022-12-16T03:37:14;229.97;;;83.33;;
5776;SDS011;2914;42.668;23.346;2022-12-16T03:39:46;265.37;;;85.57;;
5776;SDS011;2914;42.668;23.346;2022-12-16T03:42:18;262.83;;;83.90;;
5776;SDS011;2914;42.668;23.346;2022-12-16T03:44:47;211.77;;;77.80;;
5776;SDS011;2914;42.668;23.346;2022-12-16T03:47:17;212.13;;;75.60;;
5776;SDS011;2914;42.668;23.346;2022-12-16T03:49:55;208.60;;;73.37;;
5776;SDS011;2914;42.668;23.346;2022-12-16T03:52:24;178.00;;;69.87;;
5776;SDS011;2914;42.668;23.346;2022-12-16T03:55:04;228.97;;;74.13;;
5776;SDS011;2914;42.668;23.346;2022-12-16T03:57:34;193.33;;;71.80;;
5776;SDS011;2914;42.668;23.346;2022-12-16T04:00:04;192.77;;;71.67;;
5776;SDS011;2914;42.668;23.346;2022-12-16T04:02:35;209.73;;;72.03;;
5776;SDS011;2914;42.668;23.346;2022-12-16T04:05:05;186.90;;;70.20;;
5776;SDS011;2914;42.668;23.346;2022-12-16T04:07:35;162.77;;;62.97;;
5776;SDS011;2914;42.668;23.346;2022-12-16T04:10:05;177.83;;;66.07;;
5776;SDS011;2914;42.668;23.346;2022-12-16T04:12:36;178.27;;;63.57;;
5776;SDS011;2914;42.668;23.346;2022-12-16T04:15:23;182.13;;;67.60;;
5776;SDS011;2914;42.668;23.346;2022-12-16T04:18:12;174.93;;;65.67;;
5776;SDS011;2914;42.668;23.346;2022-12-16T04:21:00;195.00;;;68.37;;
5776;SDS011;2914;42.668;23.346;2022-12-16T04:23:49;205.50;;;76.57;;
5776;SDS011;2914;42.668;23.346;2022-12-16T04:26:37;179.40;;;71.03;;
5776;SDS011;2914;42.668;23.346;2022-12-16T04:29:25;292.33;;;124.30;;
5776;SDS011;2914;42.668;23.346;2022-12-16T04:31:54;261.90;;;99.87;;
5776;SDS011;2914;42.668;23.346;2022-12-16T04:34:24;215.37;;;90.57;;
5776;SDS011;2914;42.668;23.346;2022-12-16T04:36:55;165.07;;;63.70;;
5776;SDS011;2914;42.668;23.346;2022-12-16T04:39:43;141.10;;;54.27;;
5776;SDS011;2914;42.668;23.346;2022-12-16T04:42:31;142.07;;;55.57;;
5776;SDS011;2914;42.668;23.346;2022-12-16T04:45:11;114.77;;;45.60;;
5776;SDS011;2914;42.668;23.346;2022-12-16T04:48:00;115.10;;;47.70;;
5776;SDS011;2914;42.668;23.346;2022-12-16T04:50:37;116.40;;;46.90;;
5776;SDS011;2914;42.668;23.346;2022-12-16T04:53:25;112.13;;;47.00;;
5776;SDS011;2914;42.668;23.346;2022-12-16T04:56:12;111.97;;;43.80;;
5776;SDS011;2914;42.668;23.346;2022-12-16T04:58:58;99.53;;;45.00;;
5776;SDS011;2914;42.668;23.346;2022-12-16T05:01:45;100.03;;;38.60;;
5776;SDS011;2914;42.668;23.346;2022-12-16T05:04:32;96.70;;;38.00;;
5776;SDS011;2914;42.668;23.346;2022-12-16T05:07:19;91.37;;;37.93;;
5776;SDS011;2914;42.668;23.346;2022-12-16T05:10:07;119.33;;;40.80;;
5776;SDS011;2914;42.668;23.346;2022-12-16T05:12:54;106.53;;;39.53;;
5776;SDS011;2914;42.668;23.346;2022-12-16T05:15:41;119.23;;;39.73;;
5776;SDS011;2914;42.668;23.346;2022-12-16T05:18:28;90.07;;;36.73;;
5776;SDS011;2914;42.668;23.346;2022-12-16T05:21:15;124.57;;;37.73;;
5776;SDS011;2914;42.668;23.346;2022-12-16T05:24:02;99.10;;;36.40;;
5776;SDS011;2914;42.668;23.346;2022-12-16T05:26:50;103.63;;;34.27;;
5776;SDS011;2914;42.668;23.346;2022-12-16T05:29:37;91.50;;;37.27;;
5776;SDS011;2914;42.668;23.346;2022-12-16T05:32:23;80.00;;;34.70;;
5776;SDS011;2914;42.668;23.346;2022-12-16T05:38:03;112.33;;;35.77;;
5776;SDS011;2914;42.668;23.346;2022-12-16T05:40:50;114.87;;;39.50;;
5776;SDS011;2914;42.668;23.346;2022-12-16T05:43:36;85.60;;;37.10;;
5776;SDS011;2914;42.668;23.346;2022-12-16T05:46:23;96.03;;;35.60;;
5776;SDS011;2914;42.668;23.346;2022-12-16T05:49:12;115.70;;;40.13;;
5776;SDS011;2914;42.668;23.346;2022-12-16T05:52:02;146.70;;;41.20;;
5776;SDS011;2914;42.668;23.346;2022-12-16T05:54:49;117.93;;;38.27;;
5776;SDS011;2914;42.668;23.346;2022-12-16T05:57:36;120.77;;;37.10;;
5776;SDS011;2914;42.668;23.346;2022-12-16T06:00:23;118.85;;;45.63;;
5776;SDS011;2914;42.668;23.346;2022-12-16T06:03:11;126.30;;;43.17;;
5776;SDS011;2914;42.668;23.346;2022-12-16T06:06:00;114.60;;;41.90;;
5776;SDS011;2914;42.668;23.346;2022-12-16T06:08:47;110.53;;;40.80;;
5776;SDS011;2914;42.668;23.346;2022-12-16T06:11:34;159.03;;;37.50;;
5776;SDS011;2914;42.668;23.346;2022-12-16T06:14:34;130.27;;;35.80;;
5776;SDS011;2914;42.668;23.346;2022-12-16T06:17:18;91.83;;;33.03;;
5776;SDS011;2914;42.668;23.346;2022-12-16T06:20:07;135.20;;;35.50;;
5776;SDS011;2914;42.668;23.346;2022-12-16T06:22:54;110.77;;;33.73;;
5776;SDS011;2914;42.668;23.346;2022-12-16T06:25:41;97.13;;;35.77;;
5776;SDS011;2914;42.668;23.346;2022-12-16T06:28:28;107.60;;;36.50;;
5776;SDS011;2914;42.668;23.346;2022-12-16T06:31:15;89.37;;;36.47;;
5776;SDS011;2914;42.668;23.346;2022-12-16T06:34:02;138.67;;;38.13;;
5776;SDS011;2914;42.668;23.346;2022-12-16T06:36:49;101.97;;;37.97;;
5776;SDS011;2914;42.668;23.346;2022-12-16T06:39:36;87.20;;;36.03;;
5776;SDS011;2914;42.668;23.346;2022-12-16T06:42:25;93.37;;;38.17;;
5776;SDS011;2914;42.668;23.346;2022-12-16T06:45:11;109.83;;;38.33;;
5776;SDS011;2914;42.668;23.346;2022-12-16T06:47:58;116.70;;;38.07;;
5776;SDS011;2914;42.668;23.346;2022-12-16T06:50:45;133.90;;;41.57;;
5776;SDS011;2914;42.668;23.346;2022-12-16T06:53:32;86.40;;;35.20;;
5776;SDS011;2914;42.668;23.346;2022-12-16T06:56:20;108.13;;;40.43;;
5776;SDS011;2914;42.668;23.346;2022-12-16T06:58:58;121.57;;;42.70;;
5776;SDS011;2914;42.668;23.346;2022-12-16T07:01:44;108.10;;;41.27;;
5776;SDS011;2914;42.668;23.346;2022-12-16T07:04:31;97.10;;;36.67;;
5776;SDS011;2914;42.668;23.346;2022-12-16T07:07:18;181.07;;;37.97;;
5776;SDS011;2914;42.668;23.346;2022-12-16T07:10:06;91.63;;;33.80;;
5776;SDS011;2914;42.668;23.346;2022-12-16T07:12:58;107.33;;;34.33;;
5776;SDS011;2914;42.668;23.346;2022-12-16T07:15:36;97.90;;;36.23;;
5776;SDS011;2914;42.668;23.346;2022-12-16T07:18:23;95.40;;;36.60;;
5776;SDS011;2914;42.668;23.346;2022-12-16T07:21:10;89.37;;;35.80;;
5776;SDS011;2914;42.668;23.346;2022-12-16T07:23:57;104.37;;;37.67;;
5776;SDS011;2914;42.668;23.346;2022-12-16T07:26:44;96.27;;;37.90;;
5776;SDS011;2914;42.668;23.346;2022-12-16T07:29:31;110.33;;;43.63;;
5776;SDS011;2914;42.668;23.346;2022-12-16T07:32:18;129.73;;;43.70;;
5776;SDS011;2914;42.668;23.346;2022-12-16T07:35:06;117.63;;;41.90;;
5776;SDS011;2914;42.668;23.346;2022-12-16T07:37:52;146.77;;;42.20;;
5776;SDS011;2914;42.668;23.346;2022-12-16T07:40:40;131.03;;;40.10;;
5776;SDS011;2914;42.668;23.346;2022-12-16T07:43:26;127.40;;;42.20;;
5776;SDS011;2914;42.668;23.346;2022-12-16T07:46:14;121.27;;;41.87;;
5776;SDS011;2914;42.668;23.346;2022-12-16T07:49:01;125.43;;;42.10;;
5776;SDS011;2914;42.668;23.346;2022-12-16T07:51:48;105.90;;;40.50;;
5776;SDS011;2914;42.668;23.346;2022-12-16T07:54:35;101.50;;;38.40;;
5776;SDS011;2914;42.668;23.346;2022-12-16T07:57:22;104.80;;;37.37;;
5776;SDS011;2914;42.668;23.346;2022-12-16T08:00:10;110.00;;;41.50;;
5776;SDS011;2914;42.668;23.346;2022-12-16T08:05:53;105.30;;;40.53;;
5776;SDS011;2914;42.668;23.346;2022-12-16T08:08:40;112.13;;;38.47;;
5776;SDS011;2914;42.668;23.346;2022-12-16T08:11:27;124.20;;;39.40;;
5776;SDS011;2914;42.668;23.346;2022-12-16T08:14:14;120.30;;;41.60;;
5776;SDS011;2914;42.668;23.346;2022-12-16T08:17:00;130.10;;;41.63;;
5776;SDS011;2914;42.668;23.346;2022-12-16T08:19:48;129.37;;;40.90;;
5776;SDS011;2914;42.668;23.346;2022-12-16T08:22:34;122.50;;;40.30;;
5776;SDS011;2914;42.668;23.346;2022-12-16T08:25:21;117.63;;;39.93;;
5776;SDS011;2914;42.668;23.346;2022-12-16T08:28:09;115.00;;;40.53;;
5776;SDS011;2914;42.668;23.346;2022-12-16T08:30:57;145.90;;;43.90;;
5776;SDS011;2914;42.668;23.346;2022-12-16T08:33:44;151.40;;;43.53;;
5776;SDS011;2914;42.668;23.346;2022-12-16T08:36:31;114.33;;;41.10;;
5776;SDS011;2914;42.668;23.346;2022-12-16T08:39:18;115.43;;;42.60;;
5776;SDS011;2914;42.668;23.346;2022-12-16T08:42:06;122.43;;;42.67;;
5776;SDS011;2914;42.668;23.346;2022-12-16T08:44:52;114.23;;;42.47;;
5776;SDS011;2914;42.668;23.346;2022-12-16T08:47:41;110.83;;;41.33;;
5776;SDS011;2914;42.668;23.346;2022-12-16T08:50:30;106.17;;;38.80;;
5776;SDS011;2914;42.668;23.346;2022-12-16T08:53:17;133.30;;;47.60;;
5776;SDS011;2914;42.668;23.346;2022-12-16T08:56:05;118.00;;;45.50;;
5776;SDS011;2914;42.668;23.346;2022-12-16T08:58:52;101.90;;;37.70;;
5776;SDS011;2914;42.668;23.346;2022-12-16T09:01:40;95.50;;;36.63;;
5776;SDS011;2914;42.668;23.346;2022-12-16T09:04:30;93.00;;;36.87;;
5776;SDS011;2914;42.668;23.346;2022-12-16T09:07:16;103.40;;;38.63;;
5776;SDS011;2914;42.668;23.346;2022-12-16T09:10:04;92.83;;;35.70;;
5776;SDS011;2914;42.668;23.346;2022-12-16T09:12:51;97.33;;;37.00;;
5776;SDS011;2914;42.668;23.346;2022-12-16T09:15:38;115.40;;;36.97;;
5776;SDS011;2914;42.668;23.346;2022-12-16T09:18:25;98.33;;;36.40;;
5776;SDS011;2914;42.668;23.346;2022-12-16T09:21:22;85.20;;;36.70;;
5776;SDS011;2914;42.668;23.346;2022-12-16T09:24:09;96.17;;;37.10;;
5776;SDS011;2914;42.668;23.346;2022-12-16T09:26:56;114.00;;;38.50;;
5776;SDS011;2914;42.668;23.346;2022-12-16T09:29:43;111.47;;;38.00;;
5776;SDS011;2914;42.668;23.346;2022-12-16T09:32:30;116.27;;;39.97;;
5776;SDS011;2914;42.668;23.346;2022-12-16T09:35:17;83.97;;;35.10;;
5776;SDS011;2914;42.668;23.346;2022-12-16T09:38:06;106.17;;;36.63;;
5776;SDS011;2914;42.668;23.346;2022-12-16T09:40:53;96.17;;;36.00;;
5776;SDS011;2914;42.668;23.346;2022-12-16T09:43:44;85.87;;;35.90;;
5776;SDS011;2914;42.668;23.346;2022-12-16T09:46:26;99.17;;;35.80;;
5776;SDS011;2914;42.668;23.346;2022-12-16T09:49:15;80.87;;;32.77;;
5776;SDS011;2914;42.668;23.346;2022-12-16T09:52:03;97.57;;;35.27;;
5776;SDS011;2914;42.668;23.346;2022-12-16T09:54:53;86.97;;;36.23;;
5776;SDS011;2914;42.668;23.346;2022-12-16T09:57:41;103.53;;;36.33;;
5776;SDS011;2914;42.668;23.346;2022-12-16T10:00:30;95.67;;;37.70;;
5776;SDS011;2914;42.668;23.346;2022-12-16T10:03:20;84.83;;;33.80;;
5776;SDS011;2914;42.668;23.346;2022-12-16T10:06:09;81.70;;;34.57;;
5776;SDS011;2914;42.668;23.346;2022-12-16T10:09:01;79.57;;;35.80;;
5776;SDS011;2914;42.668;23.346;2022-12-16T10:11:51;85.30;;;35.23;;
5776;SDS011;2914;42.668;23.346;2022-12-16T10:14:39;85.67;;;34.83;;
5776;SDS011;2914;42.668;23.346;2022-12-16T10:17:28;72.83;;;32.97;;
5776;SDS011;2914;42.668;23.346;2022-12-16T10:20:17;77.40;;;32.47;;
5776;SDS011;2914;42.668;23.346;2022-12-16T10:23:07;70.53;;;35.43;;
5776;SDS011;2914;42.668;23.346;2022-12-16T10:25:45;69.90;;;33.40;;
5776;SDS011;2914;42.668;23.346;2022-12-16T10:28:39;86.10;;;34.80;;
5776;SDS011;2914;42.668;23.346;2022-12-16T10:31:29;72.83;;;35.37;;
5776;SDS011;2914;42.668;23.346;2022-12-16T10:34:18;73.40;;;33.57;;
5776;SDS011;2914;42.668;23.346;2022-12-16T10:37:07;76.50;;;34.33;;
5776;SDS011;2914;42.668;23.346;2022-12-16T10:39:58;90.60;;;35.30;;
5776;SDS011;2914;42.668;23.346;2022-12-16T10:42:47;71.57;;;32.90;;
5776;SDS011;2914;42.668;23.346;2022-12-16T10:45:39;71.43;;;36.20;;
5776;SDS011;2914;42.668;23.346;2022-12-16T10:48:26;78.60;;;37.47;;
5776;SDS011;2914;42.668;23.346;2022-12-16T10:51:16;78.80;;;35.50;;
5776;SDS011;2914;42.668;23.346;2022-12-16T10:54:12;84.80;;;34.20;;
5776;SDS011;2914;42.668;23.346;2022-12-16T10:57:22;81.87;;;36.30;;
5776;SDS011;2914;42.668;23.346;2022-12-16T11:00:12;81.37;;;36.40;;
5776;SDS011;2914;42.668;23.346;2022-12-16T11:03:18;216.70;;;43.90;;
5776;SDS011;2914;42.668;23.346;2022-12-16T11:06:06;88.40;;;37.50;;
5776;SDS011;2914;42.668;23.346;2022-12-16T11:08:55;94.50;;;37.87;;
5776;SDS011;2914;42.668;23.346;2022-12-16T11:11:43;94.97;;;40.90;;
5776;SDS011;2914;42.668;23.346;2022-12-16T11:14:30;99.53;;;42.80;;
5776;SDS011;2914;42.668;23.346;2022-12-16T11:17:23;93.37;;;38.63;;
5776;SDS011;2914;42.668;23.346;2022-12-16T11:20:15;79.17;;;39.03;;
5776;SDS011;2914;42.668;23.346;2022-12-16T11:23:17;85.60;;;38.53;;
5776;SDS011;2914;42.668;23.346;2022-12-16T11:26:06;74.93;;;36.30;;
5776;SDS011;2914;42.668;23.346;2022-12-16T11:29:16;65.10;;;32.77;;
5776;SDS011;2914;42.668;23.346;2022-12-16T11:32:05;65.70;;;32.87;;
5776;SDS011;2914;42.668;23.346;2022-12-16T11:34:53;68.10;;;34.07;;
5776;SDS011;2914;42.668;23.346;2022-12-16T11:37:41;59.30;;;31.57;;
5776;SDS011;2914;42.668;23.346;2022-12-16T11:40:32;65.70;;;30.67;;
5776;SDS011;2914;42.668;23.346;2022-12-16T11:43:20;63.73;;;29.63;;
5776;SDS011;2914;42.668;23.346;2022-12-16T11:46:07;56.73;;;29.90;;
5776;SDS011;2914;42.668;23.346;2022-12-16T11:48:56;56.73;;;30.13;;
5776;SDS011;2914;42.668;23.346;2022-12-16T11:51:51;54.60;;;29.43;;
5776;SDS011;2914;42.668;23.346;2022-12-16T11:54:26;66.47;;;32.33;;
5776;SDS011;2914;42.668;23.346;2022-12-16T11:57:18;58.50;;;30.77;;
5776;SDS011;2914;42.668;23.346;2022-12-16T12:00:11;64.43;;;31.20;;
5776;SDS011;2914;42.668;23.346;2022-12-16T12:03:00;56.00;;;31.03;;
5776;SDS011;2914;42.668;23.346;2022-12-16T12:05:56;56.67;;;31.13;;
5776;SDS011;2914;42.668;23.346;2022-12-16T12:08:41;62.67;;;30.80;;
5776;SDS011;2914;42.668;23.346;2022-12-16T12:11:21;54.57;;;31.17;;
5776;SDS011;2914;42.668;23.346;2022-12-16T12:14:12;53.87;;;29.80;;
5776;SDS011;2914;42.668;23.346;2022-12-16T12:17:03;70.40;;;32.73;;
5776;SDS011;2914;42.668;23.346;2022-12-16T12:19:57;62.63;;;29.47;;
5776;SDS011;2914;42.668;23.346;2022-12-16T12:22:48;75.47;;;31.03;;
5776;SDS011;2914;42.668;23.346;2022-12-16T12:25:36;54.30;;;27.73;;
5776;SDS011;2914;42.668;23.346;2022-12-16T12:28:27;57.63;;;28.47;;
5776;SDS011;2914;42.668;23.346;2022-12-16T12:31:23;55.53;;;29.33;;
5776;SDS011;2914;42.668;23.346;2022-12-16T12:34:15;54.90;;;30.67;;
5776;SDS011;2914;42.668;23.346;2022-12-16T12:37:04;66.70;;;27.63;;
5776;SDS011;2914;42.668;23.346;2022-12-16T12:42:56;64.33;;;30.40;;
5776;SDS011;2914;42.668;23.346;2022-12-16T12:45:46;56.23;;;29.87;;
5776;SDS011;2914;42.668;23.346;2022-12-16T12:48:39;64.83;;;30.87;;
5776;SDS011;2914;42.668;23.346;2022-12-16T12:51:29;55.63;;;30.77;;
5776;SDS011;2914;42.668;23.346;2022-12-16T12:54:22;58.60;;;30.10;;
5776;SDS011;2914;42.668;23.346;2022-12-16T12:57:12;64.47;;;30.20;;
5776;SDS011;2914;42.668;23.346;2022-12-16T13:00:01;55.37;;;31.27;;
5776;SDS011;2914;42.668;23.346;2022-12-16T13:02:52;66.23;;;30.33;;
5776;SDS011;2914;42.668;23.346;2022-12-16T13:05:40;56.60;;;29.40;;
5776;SDS011;2914;42.668;23.346;2022-12-16T13:11:33;70.20;;;30.87;;
5776;SDS011;2914;42.668;23.346;2022-12-16T13:27:48;36.93;;;23.03;;
5776;SDS011;2914;42.668;23.346;2022-12-16T13:30:39;44.60;;;23.87;;
5776;SDS011;2914;42.668;23.346;2022-12-16T13:33:36;52.80;;;24.10;;
5776;SDS011;2914;42.668;23.346;2022-12-16T13:36:24;43.30;;;20.60;;
5776;SDS011;2914;42.668;23.346;2022-12-16T13:39:27;49.23;;;21.30;;
5776;SDS011;2914;42.668;23.346;2022-12-16T13:42:32;39.43;;;18.57;;
5776;SDS011;2914;42.668;23.346;2022-12-16T13:45:31;44.67;;;18.17;;
5776;SDS011;2914;42.668;23.346;2022-12-16T13:54:58;47.63;;;23.50;;
5776;SDS011;2914;42.668;23.346;2022-12-16T13:57:50;49.17;;;26.37;;
5776;SDS011;2914;42.668;23.346;2022-12-16T14:00:39;49.67;;;26.97;;
5776;SDS011;2914;42.668;23.346;2022-12-16T14:03:39;49.70;;;27.23;;
5776;SDS011;2914;42.668;23.346;2022-12-16T14:06:25;50.77;;;28.40;;
5776;SDS011;2914;42.668;23.346;2022-12-16T14:09:23;53.87;;;29.43;;
5776;SDS011;2914;42.668;23.346;2022-12-16T14:15:44;72.37;;;31.90;;
5776;SDS011;2914;42.668;23.346;2022-12-16T14:18:40;63.60;;;29.03;;
5776;SDS011;2914;42.668;23.346;2022-12-16T14:21:31;60.30;;;28.77;;
5776;SDS011;2914;42.668;23.346;2022-12-16T14:24:21;50.23;;;24.87;;
5776;SDS011;2914;42.668;23.346;2022-12-16T14:27:12;43.43;;;24.97;;
5776;SDS011;2914;42.668;23.346;2022-12-16T14:30:10;51.63;;;27.77;;
5776;SDS011;2914;42.668;23.346;2022-12-16T14:33:16;51.80;;;27.07;;
5776;SDS011;2914;42.668;23.346;2022-12-16T14:36:18;49.73;;;25.10;;
5776;SDS011;2914;42.668;23.346;2022-12-16T14:39:10;48.10;;;25.33;;
5776;SDS011;2914;42.668;23.346;2022-12-16T14:41:59;45.30;;;26.00;;
5776;SDS011;2914;42.668;23.346;2022-12-16T14:44:46;42.60;;;23.20;;
5776;SDS011;2914;42.668;23.346;2022-12-16T14:47:33;40.97;;;23.30;;
5776;SDS011;2914;42.668;23.346;2022-12-16T14:50:24;49.90;;;25.00;;
5776;SDS011;2914;42.668;23.346;2022-12-16T14:53:14;48.27;;;24.53;;
5776;SDS011;2914;42.668;23.346;2022-12-16T14:56:15;53.63;;;25.63;;
5776;SDS011;2914;42.668;23.346;2022-12-16T14:59:08;44.27;;;23.20;;
5776;SDS011;2914;42.668;23.346;2022-12-16T15:02:07;45.93;;;25.07;;
5776;SDS011;2914;42.668;23.346;2022-12-16T15:04:53;47.00;;;24.90;;
5776;SDS011;2914;42.668;23.346;2022-12-16T15:07:40;53.53;;;22.53;;
5776;SDS011;2914;42.668;23.346;2022-12-16T15:10:27;52.20;;;24.73;;
5776;SDS011;2914;42.668;23.346;2022-12-16T15:13:16;56.03;;;26.63;;
5776;SDS011;2914;42.668;23.346;2022-12-16T15:16:03;60.30;;;26.30;;
5776;SDS011;2914;42.668;23.346;2022-12-16T15:18:56;50.93;;;24.67;;
5776;SDS011;2914;42.668;23.346;2022-12-16T15:21:45;48.60;;;22.77;;
5776;SDS011;2914;42.668;23.346;2022-12-16T15:24:25;48.47;;;23.13;;
5776;SDS011;2914;42.668;23.346;2022-12-16T15:27:14;39.10;;;19.10;;
5776;SDS011;2914;42.668;23.346;2022-12-16T15:33:15;26.53;;;15.23;;
5776;SDS011;2914;42.668;23.346;2022-12-16T15:36:04;26.03;;;14.73;;
5776;SDS011;2914;42.668;23.346;2022-12-16T15:38:55;15.00;;;9.10;;
5776;SDS011;2914;42.668;23.346;2022-12-16T15:41:45;24.83;;;11.27;;
5776;SDS011;2914;42.668;23.346;2022-12-16T15:44:32;30.30;;;12.87;;
5776;SDS011;2914;42.668;23.346;2022-12-16T15:47:19;26.33;;;13.93;;
5776;SDS011;2914;42.668;23.346;2022-12-16T15:50:10;18.73;;;12.00;;
5776;SDS011;2914;42.668;23.346;2022-12-16T15:53:13;24.73;;;14.13;;
5776;SDS011;2914;42.668;23.346;2022-12-16T15:56:02;22.87;;;12.13;;
5776;SDS011;2914;42.668;23.346;2022-12-16T15:58:49;30.60;;;13.37;;
5776;SDS011;2914;42.668;23.346;2022-12-16T16:01:39;28.67;;;14.00;;
5776;SDS011;2914;42.668;23.346;2022-12-16T16:04:26;20.57;;;12.50;;
5776;SDS011;2914;42.668;23.346;2022-12-16T16:07:16;23.63;;;13.00;;
5776;SDS011;2914;42.668;23.346;2022-12-16T16:10:06;21.40;;;13.37;;
5776;SDS011;2914;42.668;23.346;2022-12-16T16:12:59;26.57;;;12.17;;
5776;SDS011;2914;42.668;23.346;2022-12-16T16:15:47;19.67;;;10.90;;
5776;SDS011;2914;42.668;23.346;2022-12-16T16:18:34;18.17;;;10.70;;
5776;SDS011;2914;42.668;23.346;2022-12-16T16:21:21;19.43;;;10.93;;
5776;SDS011;2914;42.668;23.346;2022-12-16T16:24:08;18.93;;;9.90;;
5776;SDS011;2914;42.668;23.346;2022-12-16T16:26:55;28.13;;;10.47;;
5776;SDS011;2914;42.668;23.346;2022-12-16T16:29:44;13.80;;;9.27;;
5776;SDS011;2914;42.668;23.346;2022-12-16T16:32:31;28.03;;;9.33;;
5776;SDS011;2914;42.668;23.346;2022-12-16T16:35:18;20.33;;;10.70;;
5776;SDS011;2914;42.668;23.346;2022-12-16T16:38:05;15.70;;;8.83;;
5776;SDS011;2914;42.668;23.346;2022-12-16T16:40:54;18.93;;;11.00;;
5776;SDS011;2914;42.668;23.346;2022-12-16T16:43:31;18.20;;;9.40;;
5776;SDS011;2914;42.668;23.346;2022-12-16T16:46:27;16.80;;;10.20;;
5776;SDS011;2914;42.668;23.346;2022-12-16T16:49:20;17.97;;;11.10;;
5776;SDS011;2914;42.668;23.346;2022-12-16T16:52:12;16.00;;;9.33;;
5776;SDS011;2914;42.668;23.346;2022-12-16T16:55:01;21.10;;;11.93;;
5776;SDS011;2914;42.668;23.346;2022-12-16T16:57:49;19.93;;;11.17;;
5776;SDS011;2914;42.668;23.346;2022-12-16T17:00:35;23.20;;;12.20;;
5776;SDS011;2914;42.668;23.346;2022-12-16T17:03:22;20.70;;;12.60;;